Terminal Aerodrome Forecast
Issued by NWS

Home | Current Version | Previous Version | Graphics & Text | Print | Product List | Glossary On
Versions: 1 2 3 4 5 6 7 8 9 10 11 12 13 14
840
FTUS43 KMPX 221722
TAFRNH
TAF
KRNH 221722Z 2218/2318 18017G23KT P6SM FEW009
     FM230100 18011KT P6SM SKC
     FM231700 19013G19KT P6SM SKC=

USA.gov is the U.S. government's official web portal to all federal, state and local government web resources and services.